Lancaster, NY (14086)

9:19 AM EDT on August 22, 2014 (GMT -0400)
South Lancaster | Change Station
CLOSE
Current Station
Personal Weather Station
Location: Lancaster, NY
Elevation: 684 ft
Nearby Weather Stations

Elev 684 ft 42.87 °N, 78.67 °W | Updated 4 seconds ago

Mostly Cloudy
Mostly Cloudy
70.6 °F
Feels Like 74 °F
N
0.0
Wind Variable Wind from SW
Gusts 2.0 mph

Today
High -- | Low -- °F
--% Chance of Precip.
Yesterday
High -- | Low -- °F
Precip. -- in
6:28 AM 8:05 PM
Waning Crescent, 8% visible
Pressure 29.99 in
Visibility 4.0 miles
Clouds Mostly Cloudy 700 ft
Mostly Cloudy 4700 ft
Overcast 7000 ft
Heat Index 74 °F
Dew Point 60 °F
Humidity 69%
Rainfall 0.00 in
Snow Depth Not available.
UV 1 out of 12
Pollen 8.80 out of 12
Air Quality Not available.
Flu Activity Not available.
METAR KBUF 221254Z 00000KT 4SM BR BKN007 BKN047 OVC070 21/18 A3000 RMK AO2 RAE04 SLP155 P0000 T02060183

More Conditions Fewer Conditions

Pressure 29.99 in
Visibility 4.0 miles
Clouds Mostly Cloudy 700 ft
Mostly Cloudy 4700 ft
Overcast 7000 ft
Heat Index 74 °F
Dew Point 60 °F
Humidity 69%
Rainfall 0.00 in
Snow Depth Not available.
UV 1 out of 12
Pollen 8.80 out of 12
Air Quality Not available.
Flu Activity Not available.
METAR KBUF 221254Z 00000KT 4SM BR BKN007 BKN047 OVC070 21/18 A3000 RMK AO2 RAE04 SLP155 P0000 T02060183

More Conditions Fewer Conditions

10-Day Weather Forecast

Almanac

Astronomy

Aug. 22, 2014 Rise Set
Actual Time 6:28 AM EDT 8:05 PM EDT
Civil Twilight 5:58 AM EDT 8:35 PM EDT
Nautical Twilight 5:21 AM EDT 9:11 PM EDT
Astronomical Twilight 4:42 AM EDT 9:50 PM EDT
Moon 3:47 AM EDT 6:14 PM EDT
Length of Visible Light 14h 37m
Length of Day
13h 37m
Tomorrow will be 2m 41s shorter.
Waning Crescent, 8% of the Moon is Illuminated
Today
Waning Crescent
Aug 25
New
Sep 2
First Quarter
Sep 8
Full
Sep 15
Last Quarter

Today's Extremes

State Highs State Lows

Community

WunderPhotos

Upload Photos

1,746,160 photos uploaded!

Nearby

Air Quality

  Air Quality AQ Index Pollutant
Friday Good
OZONE
Friday Good
PM2.5

Snow Depth

Station Depth Elevation
No new snow has been reported.

Earthquake Activity

City Distance Mag. Time & Date
No recent earthquake activity has been reported nearby.
Minimum magnitude displayed is 2.5.

Coastal Water Temperatures

Place Temperature
Buffalo, NY 72.0 °F

Nearby Weather Stations